sensor_id;sensor_type;location;lat;lon;timestamp;pressure;altitude;pressure_sealevel;temperature;humidity
5879;BME280;2965;42.640;23.370;2023-03-21T05:02:44;94334.09;;;8.99;100.00
5879;BME280;2965;42.640;23.370;2023-03-21T05:05:10;94334.91;;;8.99;100.00
5879;BME280;2965;42.640;23.370;2023-03-21T05:07:39;94328.50;;;9.02;100.00
5879;BME280;2965;42.640;23.370;2023-03-21T05:10:06;94328.09;;;9.13;100.00
5879;BME280;2965;42.640;23.370;2023-03-21T05:12:32;94327.81;;;9.08;100.00
5879;BME280;2965;42.640;23.370;2023-03-21T05:14:57;94334.19;;;9.05;100.00
5879;BME280;2965;42.640;23.370;2023-03-21T05:17:22;94337.88;;;9.11;100.00
5879;BME280;2965;42.640;23.370;2023-03-21T05:19:49;94339.50;;;9.12;100.00
5879;BME280;2965;42.640;23.370;2023-03-21T05:22:17;94344.16;;;9.02;100.00
5879;BME280;2965;42.640;23.370;2023-03-21T05:24:44;94340.47;;;8.96;100.00
5879;BME280;2965;42.640;23.370;2023-03-21T05:27:17;94346.41;;;9.05;100.00
5879;BME280;2965;42.640;23.370;2023-03-21T05:30:06;94337.25;;;9.09;100.00
5879;BME280;2965;42.640;23.370;2023-03-21T05:32:32;94345.28;;;9.22;100.00
5879;BME280;2965;42.640;23.370;2023-03-21T05:34:58;94346.16;;;9.29;100.00
5879;BME280;2965;42.640;23.370;2023-03-21T05:37:23;94338.25;;;9.38;100.00
5879;BME280;2965;42.640;23.370;2023-03-21T05:39:49;94339.91;;;9.39;100.00
5879;BME280;2965;42.640;23.370;2023-03-21T05:42:15;94341.50;;;9.40;100.00
5879;BME280;2965;42.640;23.370;2023-03-21T05:44:42;94336.56;;;9.45;100.00
5879;BME280;2965;42.640;23.370;2023-03-21T05:47:08;94346.16;;;9.59;100.00
5879;BME280;2965;42.640;23.370;2023-03-21T05:49:33;94336.25;;;9.69;100.00
5879;BME280;2965;42.640;23.370;2023-03-21T05:51:58;94332.19;;;9.81;100.00
5879;BME280;2965;42.640;23.370;2023-03-21T05:54:25;94325.25;;;9.89;100.00
5879;BME280;2965;42.640;23.370;2023-03-21T05:56:50;94322.22;;;10.06;100.00
5879;BME280;2965;42.640;23.370;2023-03-21T05:59:15;94319.56;;;10.21;100.00
5879;BME280;2965;42.640;23.370;2023-03-21T06:01:41;94317.75;;;10.37;100.00
5879;BME280;2965;42.640;23.370;2023-03-21T06:04:07;94310.66;;;10.52;100.00
5879;BME280;2965;42.640;23.370;2023-03-21T06:06:32;94310.75;;;10.65;100.00
5879;BME280;2965;42.640;23.370;2023-03-21T06:08:58;94311.25;;;10.75;96.67
5879;BME280;2965;42.640;23.370;2023-03-21T06:11:35;94301.31;;;10.92;93.97
5879;BME280;2965;42.640;23.370;2023-03-21T06:14:01;94305.47;;;11.08;92.69
5879;BME280;2965;42.640;23.370;2023-03-21T06:16:26;94307.53;;;11.19;92.08
5879;BME280;2965;42.640;23.370;2023-03-21T06:18:53;94296.97;;;11.34;92.32
5879;BME280;2965;42.640;23.370;2023-03-21T06:21:19;94291.97;;;11.46;90.89
5879;BME280;2965;42.640;23.370;2023-03-21T06:23:45;94292.44;;;11.56;89.50
5879;BME280;2965;42.640;23.370;2023-03-21T06:26:11;94304.81;;;11.69;88.88
5879;BME280;2965;42.640;23.370;2023-03-21T06:28:37;94296.56;;;11.78;87.92
5879;BME280;2965;42.640;23.370;2023-03-21T06:31:03;94297.03;;;11.89;87.56
5879;BME280;2965;42.640;23.370;2023-03-21T06:33:28;94291.84;;;12.02;86.91
5879;BME280;2965;42.640;23.370;2023-03-21T06:35:55;94290.88;;;12.09;85.59
5879;BME280;2965;42.640;23.370;2023-03-21T06:38:21;94295.69;;;12.06;88.06
5879;BME280;2965;42.640;23.370;2023-03-21T06:40:47;94293.88;;;12.00;86.93
5879;BME280;2965;42.640;23.370;2023-03-21T06:43:13;94299.91;;;12.07;86.88
5879;BME280;2965;42.640;23.370;2023-03-21T06:45:41;94301.47;;;11.95;85.07
5879;BME280;2965;42.640;23.370;2023-03-21T06:48:06;94303.50;;;11.93;86.42
5879;BME280;2965;42.640;23.370;2023-03-21T06:50:31;94308.13;;;11.91;86.87
5879;BME280;2965;42.640;23.370;2023-03-21T06:52:57;94315.22;;;11.97;88.41
5879;BME280;2965;42.640;23.370;2023-03-21T06:55:24;94315.25;;;12.10;86.84
5879;BME280;2965;42.640;23.370;2023-03-21T06:57:52;94313.19;;;11.99;84.91
5879;BME280;2965;42.640;23.370;2023-03-21T07:00:18;94315.06;;;12.05;84.87
5879;BME280;2965;42.640;23.370;2023-03-21T07:02:43;94314.41;;;12.03;85.26
5879;BME280;2965;42.640;23.370;2023-03-21T07:05:09;94312.00;;;12.01;84.81
5879;BME280;2965;42.640;23.370;2023-03-21T07:07:34;94317.25;;;12.01;86.55
5879;BME280;2965;42.640;23.370;2023-03-21T07:10:01;94324.97;;;12.23;85.11
5879;BME280;2965;42.640;23.370;2023-03-21T07:12:26;94319.75;;;12.29;85.51
5879;BME280;2965;42.640;23.370;2023-03-21T07:14:51;94322.19;;;12.37;86.00
5879;BME280;2965;42.640;23.370;2023-03-21T07:17:17;94316.94;;;12.37;83.48
5879;BME280;2965;42.640;23.370;2023-03-21T07:19:42;94323.00;;;12.31;84.16
5879;BME280;2965;42.640;23.370;2023-03-21T07:22:07;94324.81;;;12.37;83.56
5879;BME280;2965;42.640;23.370;2023-03-21T07:24:33;94337.13;;;12.37;83.43
5879;BME280;2965;42.640;23.370;2023-03-21T07:26:58;94328.25;;;12.51;84.55
5879;BME280;2965;42.640;23.370;2023-03-21T07:29:23;94326.69;;;12.77;85.67
5879;BME280;2965;42.640;23.370;2023-03-21T07:31:49;94327.09;;;12.67;82.49
5879;BME280;2965;42.640;23.370;2023-03-21T07:34:15;94328.31;;;12.98;81.86
5879;BME280;2965;42.640;23.370;2023-03-21T07:36:41;94322.44;;;12.82;82.24
5879;BME280;2965;42.640;23.370;2023-03-21T07:39:07;94324.84;;;12.64;82.53
5879;BME280;2965;42.640;23.370;2023-03-21T07:41:32;94318.81;;;12.83;82.11
5879;BME280;2965;42.640;23.370;2023-03-21T07:43:58;94314.38;;;12.91;83.43
5879;BME280;2965;42.640;23.370;2023-03-21T07:46:23;94315.97;;;12.78;83.19
5879;BME280;2965;42.640;23.370;2023-03-21T07:48:49;94314.19;;;12.99;82.70
5879;BME280;2965;42.640;23.370;2023-03-21T07:51:15;94319.44;;;13.25;80.51
5879;BME280;2965;42.640;23.370;2023-03-21T07:53:40;94319.81;;;13.35;79.42
5879;BME280;2965;42.640;23.370;2023-03-21T07:56:06;94320.25;;;13.06;78.73
5879;BME280;2965;42.640;23.370;2023-03-21T07:58:32;94326.91;;;13.28;79.50
5879;BME280;2965;42.640;23.370;2023-03-21T08:00:59;94323.84;;;13.31;79.54
5879;BME280;2965;42.640;23.370;2023-03-21T08:03:25;94316.59;;;13.20;80.12
5879;BME280;2965;42.640;23.370;2023-03-21T08:05:53;94322.84;;;13.39;80.20
5879;BME280;2965;42.640;23.370;2023-03-21T08:08:19;94318.22;;;13.34;80.33
5879;BME280;2965;42.640;23.370;2023-03-21T08:10:44;94328.69;;;13.48;78.90
5879;BME280;2965;42.640;23.370;2023-03-21T08:13:10;94329.53;;;13.28;79.53
5879;BME280;2965;42.640;23.370;2023-03-21T08:15:36;94325.44;;;13.19;80.65
5879;BME280;2965;42.640;23.370;2023-03-21T08:18:02;94319.22;;;13.20;79.56
5879;BME280;2965;42.640;23.370;2023-03-21T08:20:27;94324.28;;;13.35;77.66
5879;BME280;2965;42.640;23.370;2023-03-21T08:22:53;94317.97;;;13.56;78.50
5879;BME280;2965;42.640;23.370;2023-03-21T08:25:20;94315.31;;;13.69;81.03
5879;BME280;2965;42.640;23.370;2023-03-21T08:27:46;94300.66;;;13.93;78.86
5879;BME280;2965;42.640;23.370;2023-03-21T08:30:14;94299.69;;;14.26;79.61
5879;BME280;2965;42.640;23.370;2023-03-21T08:32:41;94298.38;;;14.42;79.07
5879;BME280;2965;42.640;23.370;2023-03-21T08:35:09;94303.47;;;14.36;79.11
5879;BME280;2965;42.640;23.370;2023-03-21T08:37:36;94301.25;;;14.33;76.05
5879;BME280;2965;42.640;23.370;2023-03-21T08:40:03;94306.84;;;14.50;75.68
5879;BME280;2965;42.640;23.370;2023-03-21T08:42:32;94311.38;;;14.36;72.91
5879;BME280;2965;42.640;23.370;2023-03-21T08:44:57;94308.28;;;14.46;75.24
5879;BME280;2965;42.640;23.370;2023-03-21T08:47:23;94313.41;;;14.34;72.30
5879;BME280;2965;42.640;23.370;2023-03-21T08:49:48;94307.59;;;14.26;70.07
5879;BME280;2965;42.640;23.370;2023-03-21T08:52:13;94297.19;;;14.37;70.32
5879;BME280;2965;42.640;23.370;2023-03-21T08:54:39;94296.66;;;14.60;70.39
5879;BME280;2965;42.640;23.370;2023-03-21T08:57:06;94296.63;;;14.67;69.10
5879;BME280;2965;42.640;23.370;2023-03-21T08:59:33;94300.72;;;14.63;71.97
5879;BME280;2965;42.640;23.370;2023-03-21T09:01:58;94300.19;;;14.79;71.66
5879;BME280;2965;42.640;23.370;2023-03-21T09:04:23;94308.66;;;14.81;69.93
5879;BME280;2965;42.640;23.370;2023-03-21T09:06:50;94294.44;;;14.89;72.85
5879;BME280;2965;42.640;23.370;2023-03-21T09:09:16;94298.94;;;14.82;68.98
5879;BME280;2965;42.640;23.370;2023-03-21T09:11:42;94291.28;;;14.80;70.85
5879;BME280;2965;42.640;23.370;2023-03-21T09:14:08;94289.75;;;14.66;71.20
5879;BME280;2965;42.640;23.370;2023-03-21T09:16:34;94286.56;;;14.57;69.26
5879;BME280;2965;42.640;23.370;2023-03-21T09:18:59;94292.38;;;14.91;69.74
5879;BME280;2965;42.640;23.370;2023-03-21T09:21:26;94286.34;;;15.09;67.35
5879;BME280;2965;42.640;23.370;2023-03-21T09:23:53;94279.09;;;15.29;67.47
5879;BME280;2965;42.640;23.370;2023-03-21T09:26:21;94280.13;;;15.47;66.14
5879;BME280;2965;42.640;23.370;2023-03-21T09:28:47;94267.38;;;15.44;68.06
5879;BME280;2965;42.640;23.370;2023-03-21T09:31:14;94271.34;;;15.34;67.54
5879;BME280;2965;42.640;23.370;2023-03-21T09:33:43;94260.66;;;15.48;68.36
5879;BME280;2965;42.640;23.370;2023-03-21T09:36:09;94268.53;;;15.73;68.00
5879;BME280;2965;42.640;23.370;2023-03-21T09:38:41;94259.00;;;15.90;69.48
5879;BME280;2965;42.640;23.370;2023-03-21T09:49:41;94250.94;;;16.15;67.11
5879;BME280;2965;42.640;23.370;2023-03-21T09:52:20;94243.88;;;16.27;67.08
5879;BME280;2965;42.640;23.370;2023-03-21T09:54:47;94244.84;;;16.45;65.83
5879;BME280;2965;42.640;23.370;2023-03-21T09:57:30;94240.72;;;16.49;67.84
5879;BME280;2965;42.640;23.370;2023-03-21T09:59:59;94247.91;;;16.30;64.84
5879;BME280;2965;42.640;23.370;2023-03-21T10:02:42;94242.22;;;16.45;66.18
5879;BME280;2965;42.640;23.370;2023-03-21T10:05:18;94241.59;;;16.31;66.71
5879;BME280;2965;42.640;23.370;2023-03-21T10:10:23;94234.97;;;16.10;65.96
5879;BME280;2965;42.640;23.370;2023-03-21T10:12:52;94224.72;;;16.32;67.77
5879;BME280;2965;42.640;23.370;2023-03-21T10:15:20;94222.16;;;16.67;67.45
5879;BME280;2965;42.640;23.370;2023-03-21T10:17:54;94219.59;;;17.14;66.78
5879;BME280;2965;42.640;23.370;2023-03-21T10:20:24;94211.19;;;17.40;62.86
5879;BME280;2965;42.640;23.370;2023-03-21T10:22:53;94207.69;;;17.63;61.92
5879;BME280;2965;42.640;23.370;2023-03-21T10:25:34;94207.41;;;17.88;63.73
5879;BME280;2965;42.640;23.370;2023-03-21T10:28:03;94208.28;;;18.23;62.25
5879;BME280;2965;42.640;23.370;2023-03-21T10:30:36;94213.25;;;18.19;59.93
5879;BME280;2965;42.640;23.370;2023-03-21T10:33:05;94211.94;;;18.05;59.51
5879;BME280;2965;42.640;23.370;2023-03-21T10:35:34;94218.75;;;18.29;60.93
5879;BME280;2965;42.640;23.370;2023-03-21T10:38:02;94223.00;;;18.30;60.31
5879;BME280;2965;42.640;23.370;2023-03-21T10:40:28;94218.66;;;18.41;59.93
5879;BME280;2965;42.640;23.370;2023-03-21T10:42:55;94221.78;;;18.21;56.07
5879;BME280;2965;42.640;23.370;2023-03-21T10:45:22;94210.16;;;17.94;56.07
5879;BME280;2965;42.640;23.370;2023-03-21T10:47:49;94218.69;;;18.12;55.35
5879;BME280;2965;42.640;23.370;2023-03-21T10:50:17;94206.78;;;18.27;55.35
5879;BME280;2965;42.640;23.370;2023-03-21T10:52:54;94219.03;;;18.16;56.93
5879;BME280;2965;42.640;23.370;2023-03-21T10:55:30;94207.13;;;18.02;54.35
5879;BME280;2965;42.640;23.370;2023-03-21T10:58:14;94195.75;;;18.18;56.19
5879;BME280;2965;42.640;23.370;2023-03-21T11:00:43;94193.69;;;18.37;55.80
5879;BME280;2965;42.640;23.370;2023-03-21T11:03:22;94195.81;;;18.52;57.08
5879;BME280;2965;42.640;23.370;2023-03-21T11:05:52;94178.28;;;18.79;54.13
5879;BME280;2965;42.640;23.370;2023-03-21T11:08:19;94180.28;;;18.72;54.05
5879;BME280;2965;42.640;23.370;2023-03-21T11:13:41;94180.81;;;18.57;54.82
5879;BME280;2965;42.640;23.370;2023-03-21T11:16:17;94177.72;;;18.77;53.22
5879;BME280;2965;42.640;23.370;2023-03-21T11:18:49;94179.00;;;18.75;52.29
5879;BME280;2965;42.640;23.370;2023-03-21T11:21:15;94178.00;;;18.47;52.37
5879;BME280;2965;42.640;23.370;2023-03-21T11:23:46;94174.44;;;18.41;55.15
5879;BME280;2965;42.640;23.370;2023-03-21T11:26:20;94170.72;;;18.71;52.26
5879;BME280;2965;42.640;23.370;2023-03-21T11:28:48;94162.03;;;18.93;54.00
5879;BME280;2965;42.640;23.370;2023-03-21T11:31:16;94161.69;;;19.06;53.98
5879;BME280;2965;42.640;23.370;2023-03-21T11:33:49;94156.81;;;18.98;51.28
5879;BME280;2965;42.640;23.370;2023-03-21T11:38:49;94143.06;;;19.39;51.13
5879;BME280;2965;42.640;23.370;2023-03-21T11:41:31;94143.38;;;19.65;51.98
5879;BME280;2965;42.640;23.370;2023-03-21T11:43:58;94147.44;;;19.73;49.72
5879;BME280;2965;42.640;23.370;2023-03-21T11:46:27;94145.81;;;19.94;50.19
5879;BME280;2965;42.640;23.370;2023-03-21T11:48:54;94135.16;;;19.88;50.45
5879;BME280;2965;42.640;23.370;2023-03-21T11:54:09;94144.25;;;19.10;50.23
5879;BME280;2965;42.640;23.370;2023-03-21T11:56:48;94131.13;;;18.81;49.92
5879;BME280;2965;42.640;23.370;2023-03-21T12:13:34;94112.81;;;18.97;48.78
5879;BME280;2965;42.640;23.370;2023-03-21T12:22:05;94106.47;;;18.81;49.85
5879;BME280;2965;42.640;23.370;2023-03-21T12:24:52;94109.47;;;18.51;50.96
5879;BME280;2965;42.640;23.370;2023-03-21T12:35:58;94094.69;;;18.55;51.22
5879;BME280;2965;42.640;23.370;2023-03-21T12:41:43;94091.25;;;18.71;49.83
5879;BME280;2965;42.640;23.370;2023-03-21T12:44:14;94092.94;;;18.77;47.74
5879;BME280;2965;42.640;23.370;2023-03-21T12:52:13;94079.44;;;18.62;50.66
5879;BME280;2965;42.640;23.370;2023-03-21T12:54:47;94081.53;;;18.60;48.20
5879;BME280;2965;42.640;23.370;2023-03-21T12:57:31;94081.38;;;18.83;47.99
5879;BME280;2965;42.640;23.370;2023-03-21T13:02:43;94070.16;;;19.20;47.52
5879;BME280;2965;42.640;23.370;2023-03-21T13:05:34;94068.19;;;18.55;48.37
5879;BME280;2965;42.640;23.370;2023-03-21T13:08:16;94063.09;;;18.31;49.45
5879;BME280;2965;42.640;23.370;2023-03-21T13:10:44;94053.94;;;18.56;49.70
5879;BME280;2965;42.640;23.370;2023-03-21T13:16:03;94052.28;;;18.88;49.11
5879;BME280;2965;42.640;23.370;2023-03-21T13:23:37;94045.69;;;18.69;49.04
5879;BME280;2965;42.640;23.370;2023-03-21T13:26:10;94057.13;;;18.58;49.42
5879;BME280;2965;42.640;23.370;2023-03-21T13:28:38;94047.69;;;18.45;49.27
5879;BME280;2965;42.640;23.370;2023-03-21T13:31:19;94051.25;;;18.34;49.28
5879;BME280;2965;42.640;23.370;2023-03-21T13:33:47;94037.09;;;18.45;50.04
5879;BME280;2965;42.640;23.370;2023-03-21T13:36:15;94034.34;;;18.57;50.91
5879;BME280;2965;42.640;23.370;2023-03-21T13:38:48;94039.19;;;18.43;50.69
5879;BME280;2965;42.640;23.370;2023-03-21T13:41:34;94028.16;;;18.12;51.54
5879;BME280;2965;42.640;23.370;2023-03-21T13:48:56;94033.50;;;18.34;50.44
5879;BME280;2965;42.640;23.370;2023-03-21T13:59:12;94028.47;;;18.33;53.20
5879;BME280;2965;42.640;23.370;2023-03-21T14:02:39;94033.56;;;18.39;52.19
5879;BME280;2965;42.640;23.370;2023-03-21T14:04:41;94027.22;;;18.40;52.38
5879;BME280;2965;42.640;23.370;2023-03-21T14:07:10;94028.38;;;18.28;53.56
5879;BME280;2965;42.640;23.370;2023-03-21T14:09:54;94020.41;;;18.28;54.29
5879;BME280;2965;42.640;23.370;2023-03-21T14:12:28;94023.25;;;18.38;54.24
5879;BME280;2965;42.640;23.370;2023-03-21T14:14:58;94026.38;;;18.35;54.09
5879;BME280;2965;42.640;23.370;2023-03-21T14:17:31;94026.38;;;18.18;53.97
5879;BME280;2965;42.640;23.370;2023-03-21T14:20:10;94016.09;;;18.05;55.65
5879;BME280;2965;42.640;23.370;2023-03-21T14:22:40;94018.34;;;17.79;57.03
5879;BME280;2965;42.640;23.370;2023-03-21T14:25:10;94024.75;;;17.83;57.00
5879;BME280;2965;42.640;23.370;2023-03-21T14:27:37;94021.09;;;17.84;56.24
5879;BME280;2965;42.640;23.370;2023-03-21T14:30:10;94015.75;;;17.68;58.69
5879;BME280;2965;42.640;23.370;2023-03-21T14:32:36;94013.44;;;17.71;58.16
5879;BME280;2965;42.640;23.370;2023-03-21T14:35:02;94021.09;;;17.84;58.45
5879;BME280;2965;42.640;23.370;2023-03-21T14:37:37;94022.03;;;17.78;58.04
5879;BME280;2965;42.640;23.370;2023-03-21T14:40:15;94012.50;;;17.77;57.58
5879;BME280;2965;42.640;23.370;2023-03-21T14:42:45;94011.53;;;17.83;58.81
5879;BME280;2965;42.640;23.370;2023-03-21T14:45:27;94014.19;;;17.83;57.71
5879;BME280;2965;42.640;23.370;2023-03-21T14:47:57;94016.75;;;17.78;58.40
5879;BME280;2965;42.640;23.370;2023-03-21T14:50:30;94015.69;;;17.79;57.96
5879;BME280;2965;42.640;23.370;2023-03-21T14:52:57;94011.97;;;17.75;57.99
5879;BME280;2965;42.640;23.370;2023-03-21T14:55:23;94014.47;;;17.70;57.31
5879;BME280;2965;42.640;23.370;2023-03-21T14:57:49;94014.75;;;17.57;58.95
5879;BME280;2965;42.640;23.370;2023-03-21T15:00:24;94009.31;;;17.47;59.36
5879;BME280;2965;42.640;23.370;2023-03-21T15:02:51;94011.47;;;17.21;60.06
5879;BME280;2965;42.640;23.370;2023-03-21T15:05:22;94017.91;;;17.25;59.98
5879;BME280;2965;42.640;23.370;2023-03-21T15:08:00;94018.56;;;17.32;60.29
5879;BME280;2965;42.640;23.370;2023-03-21T15:10:29;94015.94;;;17.32;61.16
5879;BME280;2965;42.640;23.370;2023-03-21T15:13:15;94014.09;;;17.33;61.35
5879;BME280;2965;42.640;23.370;2023-03-21T15:15:42;94013.75;;;17.29;63.00
5879;BME280;2965;42.640;23.370;2023-03-21T15:18:14;94019.50;;;17.26;64.71
5879;BME280;2965;42.640;23.370;2023-03-21T15:20:42;94018.47;;;17.27;67.56
5879;BME280;2965;42.640;23.370;2023-03-21T15:23:25;94015.50;;;17.24;68.27
5879;BME280;2965;42.640;23.370;2023-03-21T15:25:51;94013.47;;;17.14;68.95
5879;BME280;2965;42.640;23.370;2023-03-21T15:28:17;94014.97;;;17.10;68.52
5879;BME280;2965;42.640;23.370;2023-03-21T15:30:50;94021.06;;;17.10;69.05
5879;BME280;2965;42.640;23.370;2023-03-21T15:33:17;94015.09;;;17.03;73.50
5879;BME280;2965;42.640;23.370;2023-03-21T15:36:07;94016.72;;;17.04;75.31
5879;BME280;2965;42.640;23.370;2023-03-21T15:38:35;94024.59;;;16.87;80.32
5879;BME280;2965;42.640;23.370;2023-03-21T15:43:47;94026.31;;;16.70;79.99
5879;BME280;2965;42.640;23.370;2023-03-21T15:46:15;94030.69;;;16.53;83.89
5879;BME280;2965;42.640;23.370;2023-03-21T15:48:41;94035.28;;;16.46;86.89
5879;BME280;2965;42.640;23.370;2023-03-21T15:51:15;94041.94;;;16.36;85.58
5879;BME280;2965;42.640;23.370;2023-03-21T15:53:41;94051.69;;;16.12;89.10
5879;BME280;2965;42.640;23.370;2023-03-21T15:56:08;94054.75;;;15.86;79.66
5879;BME280;2965;42.640;23.370;2023-03-21T15:58:44;94055.88;;;15.78;82.55
5879;BME280;2965;42.640;23.370;2023-03-21T16:01:15;94056.69;;;15.49;78.93
5879;BME280;2965;42.640;23.370;2023-03-21T16:03:44;94056.03;;;15.23;78.57
5879;BME280;2965;42.640;23.370;2023-03-21T16:06:21;94066.91;;;14.97;86.80
5879;BME280;2965;42.640;23.370;2023-03-21T16:09:03;94067.91;;;14.59;97.14
5879;BME280;2965;42.640;23.370;2023-03-21T16:11:43;94064.53;;;14.52;92.30
5879;BME280;2965;42.640;23.370;2023-03-21T16:14:11;94070.25;;;14.49;93.12
5879;BME280;2965;42.640;23.370;2023-03-21T16:16:37;94069.97;;;14.57;94.84
5879;BME280;2965;42.640;23.370;2023-03-21T16:19:02;94082.03;;;14.39;100.00
5879;BME280;2965;42.640;23.370;2023-03-21T16:21:29;94082.44;;;14.18;100.00
5879;BME280;2965;42.640;23.370;2023-03-21T16:23:56;94087.31;;;14.14;100.00
5879;BME280;2965;42.640;23.370;2023-03-21T16:26:30;94072.13;;;13.92;100.00
5879;BME280;2965;42.640;23.370;2023-03-21T16:28:57;94063.72;;;13.51;100.00
5879;BME280;2965;42.640;23.370;2023-03-21T16:31:28;94049.25;;;12.91;100.00
5879;BME280;2965;42.640;23.370;2023-03-21T16:33:53;94049.34;;;12.64;100.00
5879;BME280;2965;42.640;23.370;2023-03-21T16:36:29;94044.13;;;12.51;100.00
5879;BME280;2965;42.640;23.370;2023-03-21T16:38:55;94041.34;;;12.39;100.00
5879;BME280;2965;42.640;23.370;2023-03-21T16:41:22;94033.66;;;12.51;100.00
5879;BME280;2965;42.640;23.370;2023-03-21T16:43:48;94030.59;;;12.60;100.00
5879;BME280;2965;42.640;23.370;2023-03-21T16:46:16;94034.41;;;12.65;100.00
5879;BME280;2965;42.640;23.370;2023-03-21T16:48:43;94038.09;;;12.50;100.00
5879;BME280;2965;42.640;23.370;2023-03-21T16:51:16;94047.78;;;12.50;100.00
5879;BME280;2965;42.640;23.370;2023-03-21T16:53:43;94043.56;;;12.42;100.00
5879;BME280;2965;42.640;23.370;2023-03-21T16:56:20;94048.56;;;12.57;100.00
5879;BME280;2965;42.640;23.370;2023-03-21T16:58:46;94045.78;;;12.38;100.00
5879;BME280;2965;42.640;23.370;2023-03-21T17:01:16;94038.72;;;12.26;100.00
5879;BME280;2965;42.640;23.370;2023-03-21T17:03:46;94027.66;;;12.17;100.00
5879;BME280;2965;42.640;23.370;2023-03-21T17:06:13;94027.66;;;12.17;100.00
5879;BME280;2965;42.640;23.370;2023-03-21T17:08:39;94015.19;;;11.99;100.00
5879;BME280;2965;42.640;23.370;2023-03-21T17:11:08;94037.34;;;12.03;100.00
5879;BME280;2965;42.640;23.370;2023-03-21T17:13:34;94034.53;;;12.18;100.00
5879;BME280;2965;42.640;23.370;2023-03-21T17:15:59;94029.69;;;12.15;100.00
5879;BME280;2965;42.640;23.370;2023-03-21T17:18:25;94037.75;;;12.07;100.00
5879;BME280;2965;42.640;23.370;2023-03-21T17:20:50;94032.94;;;12.10;100.00
5879;BME280;2965;42.640;23.370;2023-03-21T17:23:15;94024.25;;;12.23;100.00
5879;BME280;2965;42.640;23.370;2023-03-21T17:25:41;94028.50;;;11.98;100.00
5879;BME280;2965;42.640;23.370;2023-03-21T17:28:06;94023.66;;;11.75;100.00
5879;BME280;2965;42.640;23.370;2023-03-21T17:30:34;94026.47;;;11.67;100.00
5879;BME280;2965;42.640;23.370;2023-03-21T17:33:00;94035.75;;;11.56;100.00
5879;BME280;2965;42.640;23.370;2023-03-21T17:35:26;94033.31;;;11.54;100.00
5879;BME280;2965;42.640;23.370;2023-03-21T17:37:52;94028.69;;;11.70;100.00
5879;BME280;2965;42.640;23.370;2023-03-21T17:40:22;94040.38;;;11.80;100.00
5879;BME280;2965;42.640;23.370;2023-03-21T17:42:50;94043.44;;;11.97;100.00
5879;BME280;2965;42.640;23.370;2023-03-21T17:45:16;94050.84;;;12.20;100.00
5879;BME280;2965;42.640;23.370;2023-03-21T17:47:42;94041.34;;;12.32;100.00
5879;BME280;2965;42.640;23.370;2023-03-21T17:50:18;94057.91;;;12.40;100.00
5879;BME280;2965;42.640;23.370;2023-03-21T17:52:44;94064.34;;;12.30;100.00
5879;BME280;2965;42.640;23.370;2023-03-21T17:55:10;94075.66;;;12.24;100.00
5879;BME280;2965;42.640;23.370;2023-03-21T17:57:35;94074.25;;;12.15;100.00
5879;BME280;2965;42.640;23.370;2023-03-21T18:00:03;94070.03;;;11.88;100.00
5879;BME280;2965;42.640;23.370;2023-03-21T18:02:33;94059.09;;;11.64;100.00
5879;BME280;2965;42.640;23.370;2023-03-21T18:04:58;94068.38;;;11.47;100.00
5879;BME280;2965;42.640;23.370;2023-03-21T18:07:24;94059.47;;;11.34;100.00
5879;BME280;2965;42.640;23.370;2023-03-21T18:09:50;94064.31;;;11.31;100.00
5879;BME280;2965;42.640;23.370;2023-03-21T18:12:16;94057.25;;;11.31;100.00
5879;BME280;2965;42.640;23.370;2023-03-21T18:14:41;94057.63;;;11.28;100.00
5879;BME280;2965;42.640;23.370;2023-03-21T18:17:07;94055.81;;;11.16;100.00
5879;BME280;2965;42.640;23.370;2023-03-21T18:19:33;94045.53;;;11.14;100.00
5879;BME280;2965;42.640;23.370;2023-03-21T18:22:02;94049.38;;;11.11;100.00
5879;BME280;2965;42.640;23.370;2023-03-21T18:24:28;94050.97;;;11.19;100.00
5879;BME280;2965;42.640;23.370;2023-03-21T18:26:53;94041.94;;;11.22;100.00
5879;BME280;2965;42.640;23.370;2023-03-21T18:29:19;94046.38;;;11.21;100.00
5879;BME280;2965;42.640;23.370;2023-03-21T18:31:44;94044.97;;;11.25;100.00
5879;BME280;2965;42.640;23.370;2023-03-21T18:34:10;94048.97;;;11.21;100.00
5879;BME280;2965;42.640;23.370;2023-03-21T18:36:35;94052.63;;;11.20;100.00
5879;BME280;2965;42.640;23.370;2023-03-21T18:39:01;94047.75;;;11.17;100.00
5879;BME280;2965;42.640;23.370;2023-03-21T18:41:27;94052.63;;;11.20;100.00
5879;BME280;2965;42.640;23.370;2023-03-21T18:43:53;94056.63;;;11.16;100.00
5879;BME280;2965;42.640;23.370;2023-03-21T18:46:18;94047.72;;;11.10;100.00
5879;BME280;2965;42.640;23.370;2023-03-21T18:48:44;94046.50;;;11.06;100.00
5879;BME280;2965;42.640;23.370;2023-03-21T18:51:09;94053.38;;;11.14;100.00
5879;BME280;2965;42.640;23.370;2023-03-21T18:53:35;94050.97;;;11.13;100.00
5879;BME280;2965;42.640;23.370;2023-03-21T18:56:01;94055.00;;;11.08;100.00
5879;BME280;2965;42.640;23.370;2023-03-21T18:58:26;94054.19;;;11.08;100.00
5879;BME280;2965;42.640;23.370;2023-03-21T19:00:53;94060.22;;;11.15;100.00
5879;BME280;2965;42.640;23.370;2023-03-21T19:03:18;94068.31;;;11.20;100.00
5879;BME280;2965;42.640;23.370;2023-03-21T19:05:44;94067.47;;;11.13;100.00
5879;BME280;2965;42.640;23.370;2023-03-21T19:08:09;94058.19;;;11.04;100.00
5879;BME280;2965;42.640;23.370;2023-03-21T19:10:35;94061.78;;;10.96;100.00
5879;BME280;2965;42.640;23.370;2023-03-21T19:13:01;94051.84;;;10.72;100.00
5879;BME280;2965;42.640;23.370;2023-03-21T19:15:26;94056.44;;;10.63;100.00
5879;BME280;2965;42.640;23.370;2023-03-21T19:17:53;94060.66;;;10.64;100.00
5879;BME280;2965;42.640;23.370;2023-03-21T19:20:19;94063.47;;;10.63;100.00
5879;BME280;2965;42.640;23.370;2023-03-21T19:22:45;94060.28;;;10.67;100.00
5879;BME280;2965;42.640;23.370;2023-03-21T19:25:12;94055.28;;;10.79;100.00
5879;BME280;2965;42.640;23.370;2023-03-21T19:27:38;94054.00;;;10.61;100.00
5879;BME280;2965;42.640;23.370;2023-03-21T19:30:07;94055.22;;;10.59;100.00
5879;BME280;2965;42.640;23.370;2023-03-21T19:32:33;94059.00;;;10.50;100.00
5879;BME280;2965;42.640;23.370;2023-03-21T19:34:58;94040.28;;;10.53;100.00
5879;BME280;2965;42.640;23.370;2023-03-21T19:39:56;94054.78;;;10.55;100.00
5879;BME280;2965;42.640;23.370;2023-03-21T19:42:21;94054.13;;;10.47;100.00